Spade, Texas
Current Conditions -  °F | °C
As of 6:53 PM on Friday 24 Oct 2014 (Local Time) from KLBB Reporting Station
Few Clouds Few Clouds  
Wind Chill: 76°   Ceiling: Unl
Heat Index: 76°   Visibility: 10mi
Dew Point: 50°   Wind: 7mph
Humidity: 40%   Direction: 190°S
Pressure: 30.11"   Gusts: NA
Location:  33.93°N, 102.15°W
Report Text: KLBB 242353Z 19006KT 10SM FEW270 24/10 A3011 RMK AO2 SLP163 T02440100 10300 20244 55000
Loading
Personal Weather Stations






























Interactive Weather Map
Tropical Storm Tracking
New forecast layout! Learn more

10-Day Weather Forecast

Advertisements
Track Severe Weather on mobile